createdAt,value
2022-09-28T07:47:00.812Z,5.20
2022-09-28T07:49:44.249Z,5.60
2022-09-28T07:52:16.138Z,5.90
2022-09-28T07:55:06.822Z,6.20
2022-09-28T07:58:01.698Z,6.50
2022-09-28T08:00:48.237Z,6.90
2022-09-28T08:03:16.827Z,7.30
2022-09-28T08:05:44.401Z,7.60
2022-09-28T08:08:11.710Z,7.90
2022-09-28T08:10:41.583Z,8.20
2022-09-28T08:13:46.101Z,8.50
2022-09-28T08:16:21.291Z,8.80
2022-09-28T08:19:06.430Z,9.00
2022-09-28T08:21:46.093Z,9.00
2022-09-28T08:24:15.489Z,9.00
2022-09-28T08:26:44.135Z,9.20
2022-09-28T08:29:13.108Z,9.30
2022-09-28T08:32:01.701Z,9.40
2022-09-28T08:34:39.018Z,9.50
2022-09-28T08:37:38.659Z,9.70
2022-09-28T08:40:47.421Z,9.80
2022-09-28T08:43:37.195Z,9.80
2022-09-28T08:46:27.240Z,9.80
2022-09-28T08:49:31.171Z,9.60
2022-09-28T08:52:23.557Z,9.50
2022-09-28T08:55:22.644Z,9.50
2022-09-28T08:57:54.261Z,9.60
2022-09-28T09:00:41.208Z,9.60
2022-09-28T09:03:17.163Z,9.80
2022-09-28T09:06:09.927Z,10.00
2022-09-28T09:09:02.968Z,10.10
2022-09-28T09:11:34.176Z,10.30
2022-09-28T09:14:04.863Z,10.40
2022-09-28T09:16:59.996Z,10.50
2022-09-28T09:20:05.292Z,10.70
2022-09-28T09:22:55.250Z,10.90
2022-09-28T09:25:28.108Z,11.00
2022-09-28T09:28:04.678Z,11.10
2022-09-28T09:30:41.415Z,11.20
2022-09-28T09:33:24.860Z,11.20
2022-09-28T09:36:24.098Z,11.20
2022-09-28T09:39:18.639Z,11.20
2022-09-28T09:42:12.341Z,11.40
2022-09-28T09:45:02.576Z,11.60
2022-09-28T09:48:07.578Z,11.80
2022-09-28T09:50:45.982Z,11.90
2022-09-28T09:53:17.529Z,11.90
2022-09-28T09:55:50.558Z,12.00
2022-09-28T09:58:40.691Z,12.00
2022-09-28T10:01:19.055Z,12.20
2022-09-28T10:04:07.767Z,12.40
2022-09-28T10:06:36.413Z,12.50
2022-09-28T10:09:20.436Z,12.60
2022-09-28T10:11:52.080Z,12.70
2022-09-28T10:14:24.330Z,12.80
2022-09-28T10:17:02.395Z,12.80
2022-09-28T10:20:02.089Z,12.80
2022-09-28T10:22:56.208Z,12.80
2022-09-28T10:25:24.063Z,12.90
2022-09-28T10:27:52.776Z,12.90
2022-09-28T10:30:23.332Z,13.00
2022-09-28T10:32:59.060Z,13.00
2022-09-28T10:35:31.353Z,13.00
2022-09-28T10:38:03.360Z,13.00
2022-09-28T10:40:51.955Z,13.10
2022-09-28T10:43:31.473Z,13.20
2022-09-28T10:46:01.866Z,13.30
2022-09-28T10:48:31.232Z,13.30
2022-09-28T10:51:08.357Z,13.40
2022-09-28T10:53:37.225Z,13.40
2022-09-28T10:56:28.748Z,13.40
2022-09-28T10:59:02.911Z,13.40
2022-09-28T11:01:43.616Z,13.40
2022-09-28T11:04:19.694Z,13.40
2022-09-28T11:06:47.613Z,13.40
2022-09-28T11:09:36.579Z,13.30
2022-09-28T11:12:14.334Z,13.40
2022-09-28T11:14:43.837Z,13.40
2022-09-28T11:17:18.391Z,13.40
2022-09-28T11:19:47.382Z,13.50
2022-09-28T11:22:21.025Z,13.50
2022-09-28T11:24:49.897Z,13.60
2022-09-28T11:27:22.433Z,13.80
2022-09-28T11:29:58.144Z,13.70
2022-09-28T11:32:44.938Z,13.70
2022-09-28T11:35:19.908Z,13.70
2022-09-28T11:37:48.253Z,13.80
2022-09-28T11:40:20.445Z,14.00
2022-09-28T11:45:43.951Z,14.00
2022-09-28T11:48:15.578Z,13.90
2022-09-28T11:50:53.194Z,14.10
2022-09-28T11:53:25.114Z,14.20
2022-09-28T11:56:17.682Z,14.30
2022-09-28T11:58:50.738Z,14.30
2022-09-28T12:01:22.315Z,14.40
2022-09-28T12:04:31.240Z,14.60
2022-09-28T12:07:18.014Z,14.80
2022-09-28T12:10:08.121Z,14.90
2022-09-28T12:12:38.680Z,15.10
2022-09-28T12:15:20.965Z,15.30
2022-09-28T12:17:50.583Z,15.30
2022-09-28T12:20:29.261Z,15.30
2022-09-28T12:22:59.677Z,15.00
2022-09-28T12:25:28.869Z,14.80
2022-09-28T12:27:58.162Z,14.40
2022-09-28T12:30:28.186Z,14.30
2022-09-28T12:32:59.119Z,14.00
2022-09-28T12:35:45.231Z,13.80
2022-09-28T12:38:28.077Z,13.70
2022-09-28T12:41:07.780Z,13.80
2022-09-28T12:43:40.032Z,14.00
2022-09-28T12:46:12.015Z,14.20
2022-09-28T12:49:47.256Z,14.20
2022-09-28T12:51:52.371Z,14.00
2022-09-28T12:54:38.989Z,13.70
2022-09-28T12:57:13.709Z,13.50
2022-09-28T12:59:52.113Z,13.60
2022-09-28T13:02:19.693Z,13.90
2022-09-28T13:05:06.024Z,14.20
2022-09-28T13:07:39.630Z,14.60
2022-09-28T13:10:07.158Z,14.80
2022-09-28T13:12:47.275Z,14.50
2022-09-28T13:15:27.544Z,14.40
2022-09-28T13:18:24.438Z,14.30
2022-09-28T13:20:51.989Z,14.40
2022-09-28T13:23:25.509Z,14.30
2022-09-28T13:26:07.609Z,14.20
2022-09-28T13:28:37.329Z,14.20
2022-09-28T13:31:05.283Z,14.30
2022-09-28T13:33:35.989Z,14.40
2022-09-28T13:36:21.956Z,14.60
2022-09-28T13:38:49.671Z,14.80
2022-09-28T13:41:18.559Z,15.00
2022-09-28T13:43:53.524Z,15.10
2022-09-28T13:46:31.305Z,15.10
2022-09-28T13:48:58.780Z,15.00
2022-09-28T13:51:44.626Z,15.00
2022-09-28T13:54:15.748Z,15.20
2022-09-28T13:56:49.617Z,15.30
2022-09-28T13:59:23.119Z,15.30
2022-09-28T14:02:01.662Z,15.00
2022-09-28T14:04:50.546Z,14.80
2022-09-28T14:07:23.818Z,14.40
2022-09-28T14:10:10.209Z,14.30
2022-09-28T14:12:37.691Z,14.20
2022-09-28T14:15:24.961Z,14.30
2022-09-28T14:17:55.539Z,14.40
2022-09-28T14:20:24.964Z,14.70
2022-09-28T14:23:10.806Z,14.80
2022-09-28T14:25:44.654Z,14.80
2022-09-28T14:28:24.421Z,14.50
2022-09-28T14:30:54.224Z,14.30
2022-09-28T14:33:24.695Z,14.30
2022-09-28T14:36:06.497Z,14.30
2022-09-28T14:39:08.530Z,14.30
2022-09-28T14:41:37.760Z,14.40
2022-09-28T14:44:08.121Z,14.30
2022-09-28T14:46:36.980Z,14.10
2022-09-28T14:49:19.862Z,13.80
2022-09-28T14:51:47.290Z,13.60
2022-09-28T14:54:18.002Z,13.50
2022-09-28T14:56:57.057Z,13.40
2022-09-28T14:59:25.943Z,13.40
2022-09-28T15:01:55.505Z,13.40
2022-09-28T15:04:25.943Z,13.50
2022-09-28T15:06:54.153Z,13.60
2022-09-28T15:09:39.136Z,13.60
2022-09-28T15:12:24.847Z,13.70
2022-09-28T15:14:57.357Z,13.70
2022-09-28T15:17:27.532Z,13.80
2022-09-28T15:20:13.552Z,13.90
2022-09-28T15:22:45.174Z,14.00
2022-09-28T15:25:13.907Z,14.10
2022-09-28T15:27:41.600Z,14.20
2022-09-28T15:30:28.890Z,14.20
2022-09-28T15:32:57.031Z,14.30
2022-09-28T15:35:26.589Z,14.20
2022-09-28T15:37:54.971Z,14.10
2022-09-28T15:40:31.253Z,14.00
2022-09-28T15:42:59.639Z,13.90
2022-09-28T15:45:35.331Z,13.80
2022-09-28T15:48:18.067Z,13.70
2022-09-28T15:50:57.041Z,13.40
2022-09-28T15:53:24.551Z,13.20
2022-09-28T15:55:51.934Z,13.10
2022-09-28T15:58:22.729Z,13.10
2022-09-28T16:00:51.844Z,13.10
2022-09-28T16:03:21.552Z,12.90
2022-09-28T16:05:57.953Z,12.80
2022-09-28T16:08:45.354Z,12.60
2022-09-28T16:11:27.872Z,12.60
2022-09-28T16:14:06.217Z,12.70
2022-09-28T16:16:35.333Z,12.80
2022-09-28T16:19:03.222Z,12.80
2022-09-28T16:21:31.594Z,12.80
2022-09-28T16:23:59.555Z,12.70
2022-09-28T16:26:29.443Z,12.60
2022-09-28T16:28:56.909Z,12.50
2022-09-28T16:31:29.342Z,12.40
2022-09-28T16:33:59.049Z,12.40
2022-09-28T16:36:29.813Z,12.50
2022-09-28T16:38:57.467Z,12.50
2022-09-28T16:41:27.089Z,12.50
2022-09-28T16:43:59.197Z,12.40
2022-09-28T16:46:37.327Z,12.50
2022-09-28T16:49:06.043Z,12.60
2022-09-28T16:51:33.762Z,12.70
2022-09-28T16:54:32.383Z,12.60
2022-09-28T16:57:00.119Z,12.60
2022-09-28T16:59:28.379Z,12.60
2022-09-28T17:01:56.752Z,12.60
2022-09-28T17:04:24.476Z,12.50
2022-09-28T17:06:54.287Z,12.30
2022-09-28T17:09:22.152Z,12.20
2022-09-28T17:11:56.082Z,11.90
2022-09-28T17:14:24.029Z,11.80
2022-09-28T17:17:12.674Z,11.70
2022-09-28T17:19:41.766Z,11.60
2022-09-28T17:22:09.546Z,11.50
2022-09-28T17:24:37.199Z,11.40
2022-09-28T17:27:06.939Z,11.40
2022-09-28T17:29:34.339Z,11.30
2022-09-28T17:32:01.843Z,11.30
2022-09-28T17:34:29.334Z,11.30
2022-09-28T17:36:56.684Z,11.30
2022-09-28T17:39:25.173Z,11.20
2022-09-28T17:41:52.573Z,11.20
2022-09-28T17:44:20.526Z,11.20
2022-09-28T17:46:49.635Z,11.20
2022-09-28T17:49:17.338Z,11.10
2022-09-28T17:51:44.793Z,11.10
2022-09-28T17:54:13.592Z,11.10
2022-09-28T17:56:42.479Z,11.10
2022-09-28T17:59:12.697Z,11.00
2022-09-28T18:01:40.734Z,11.00
2022-09-28T18:04:09.327Z,11.00
2022-09-28T18:06:39.748Z,11.00
2022-09-28T18:09:08.757Z,11.00
2022-09-28T18:11:42.420Z,10.90
2022-09-28T18:14:11.362Z,10.90
2022-09-28T18:16:38.906Z,10.80
2022-09-28T18:19:06.470Z,10.80
2022-09-28T18:21:33.946Z,10.80
2022-09-28T18:24:01.418Z,10.80
2022-09-28T18:26:29.288Z,10.80
2022-09-28T18:28:56.847Z,10.70
2022-09-28T18:31:24.285Z,10.70
2022-09-28T18:33:56.725Z,10.70
2022-09-28T18:36:28.152Z,10.60
2022-09-28T18:38:57.385Z,10.60
2022-09-28T18:41:24.910Z,10.60
2022-09-28T18:43:52.346Z,10.50
2022-09-28T18:46:19.739Z,10.50
2022-09-28T18:48:50.216Z,10.40
2022-09-28T18:51:17.661Z,10.30
2022-09-28T18:53:45.427Z,10.30
2022-09-28T18:56:14.772Z,10.30
2022-09-28T18:58:42.374Z,10.30
2022-09-28T19:01:35.247Z,10.20
2022-09-28T19:04:04.233Z,10.20
2022-09-28T19:06:32.246Z,10.20
2022-09-28T19:08:59.923Z,10.20
2022-09-28T19:11:27.453Z,10.20
2022-09-28T19:13:55.405Z,10.20
2022-09-28T19:16:28.474Z,10.20
2022-09-28T19:18:56.952Z,10.20
2022-09-28T19:21:24.797Z,10.10
2022-09-28T19:23:54.518Z,10.10
2022-09-28T19:26:23.150Z,10.10
2022-09-28T19:28:50.664Z,10.00
2022-09-28T19:31:18.354Z,9.90
2022-09-28T19:33:46.685Z,9.90
2022-09-28T19:36:15.605Z,9.90
2022-09-28T19:38:42.996Z,9.90
2022-09-28T19:41:11.818Z,9.90
2022-09-28T19:43:42.365Z,9.80
2022-09-28T19:46:09.813Z,9.90
2022-09-28T19:48:37.210Z,9.80
2022-09-28T19:51:05.561Z,9.90
2022-09-28T19:53:38.831Z,9.90
2022-09-28T19:56:06.420Z,9.90
2022-09-28T19:58:35.736Z,9.90
2022-09-28T20:01:07.064Z,9.90
2022-09-28T20:03:34.547Z,9.90
2022-09-28T20:06:02.283Z,9.90
2022-09-28T20:08:32.571Z,9.90
2022-09-28T20:11:00.251Z,9.90
2022-09-28T20:13:31.996Z,9.90
2022-09-28T20:16:06.653Z,9.90
2022-09-28T20:18:43.896Z,9.90
2022-09-28T20:21:18.135Z,9.90
2022-09-28T20:23:47.057Z,9.90
2022-09-28T20:26:15.101Z,9.80
2022-09-28T20:28:43.118Z,9.80
2022-09-28T20:31:15.692Z,9.80
2022-09-28T20:33:43.332Z,9.70
2022-09-28T20:36:20.826Z,9.70
2022-09-28T20:38:49.113Z,9.70
2022-09-28T20:41:20.452Z,9.60
2022-09-28T20:43:50.648Z,9.50
2022-09-28T20:46:19.429Z,9.50
2022-09-28T20:48:49.501Z,9.50
2022-09-28T20:51:18.656Z,9.40
2022-09-28T20:53:50.492Z,9.40
2022-09-28T20:56:19.713Z,9.30
2022-09-28T20:58:47.476Z,9.30
2022-09-28T21:01:17.367Z,9.30
2022-09-28T21:03:46.994Z,9.30
2022-09-28T21:06:15.276Z,9.30
2022-09-28T21:08:44.204Z,9.30
2022-09-28T21:11:12.355Z,9.30
2022-09-28T21:13:42.879Z,9.20
2022-09-28T21:16:11.376Z,9.30
2022-09-28T21:18:39.429Z,9.20
2022-09-28T21:21:07.761Z,9.20
2022-09-28T21:23:36.025Z,9.20
2022-09-28T21:26:07.765Z,9.20
2022-09-28T21:28:35.688Z,9.10
2022-09-28T21:31:04.553Z,9.10
2022-09-28T21:33:32.235Z,9.10
2022-09-28T21:36:03.433Z,9.10
2022-09-28T21:38:30.838Z,9.10
2022-09-28T21:40:58.985Z,9.10
2022-09-28T21:43:27.356Z,9.10
2022-09-28T21:45:55.733Z,9.00
2022-09-28T21:48:23.815Z,9.00
2022-09-28T21:51:01.403Z,9.00
2022-09-28T21:53:30.282Z,9.00
2022-09-28T21:55:58.577Z,8.90
2022-09-28T21:58:27.133Z,8.90
2022-09-28T22:01:03.986Z,8.90
2022-09-28T22:03:32.390Z,8.90
2022-09-28T22:05:59.931Z,9.00
2022-09-28T22:08:27.330Z,8.90
2022-09-28T22:11:00.791Z,9.00
2022-09-28T22:13:28.803Z,8.90
2022-09-28T22:15:57.855Z,9.00
2022-09-28T22:18:26.158Z,8.90
2022-09-28T22:21:00.397Z,8.90
2022-09-28T22:23:28.459Z,8.90
2022-09-28T22:25:58.986Z,8.90
2022-09-28T22:28:26.924Z,8.90
2022-09-28T22:31:13.674Z,8.90
2022-09-28T22:33:41.312Z,8.90
2022-09-28T22:36:08.837Z,8.90
2022-09-28T22:38:36.298Z,9.00
2022-09-28T22:41:03.966Z,8.90
2022-09-28T22:43:31.599Z,8.90
2022-09-28T22:46:02.589Z,8.90
2022-09-28T22:48:30.483Z,8.90
2022-09-28T22:50:58.117Z,9.00
2022-09-28T22:53:25.656Z,9.00
2022-09-28T22:55:53.101Z,9.00
2022-09-28T22:58:20.644Z,9.00
2022-09-28T23:00:48.464Z,9.00
2022-09-28T23:03:16.176Z,9.10
2022-09-28T23:05:54.118Z,9.00
2022-09-28T23:08:22.642Z,9.00
2022-09-28T23:10:50.424Z,9.00
2022-09-28T23:13:17.967Z,9.00
2022-09-28T23:15:55.276Z,9.00
2022-09-28T23:18:23.106Z,9.00
2022-09-28T23:20:54.062Z,9.10
2022-09-28T23:23:22.062Z,9.00
2022-09-28T23:25:49.740Z,9.10
2022-09-28T23:28:17.466Z,9.10
2022-09-28T23:30:44.812Z,9.10
2022-09-28T23:33:12.922Z,9.10
2022-09-28T23:35:41.341Z,9.10
2022-09-28T23:38:13.539Z,9.20
2022-09-28T23:40:41.574Z,9.10
2022-09-28T23:43:12.366Z,9.20
2022-09-28T23:45:39.787Z,9.20
2022-09-28T23:48:07.189Z,9.30
2022-09-28T23:50:34.525Z,9.30
2022-09-28T23:53:01.848Z,9.30
2022-09-28T23:55:29.323Z,9.30
2022-09-28T23:57:56.744Z,9.30
